createdAt,value
2023-03-06T00:00:06.380Z,663.0000
2023-03-06T00:01:06.517Z,662.0000
2023-03-06T00:02:08.792Z,654.0000
2023-03-06T00:03:11.151Z,647.0000
2023-03-06T00:04:13.402Z,660.0000
2023-03-06T00:05:15.641Z,658.0000
2023-03-06T00:06:15.816Z,654.0000
2023-03-06T00:07:18.073Z,651.0000
2023-03-06T00:08:18.372Z,653.0000
2023-03-06T00:09:20.553Z,654.0000
2023-03-06T00:10:22.837Z,661.0000
2023-03-06T00:11:25.152Z,659.0000
2023-03-06T00:12:27.452Z,658.0000
2023-03-06T00:13:29.945Z,657.0000
2023-03-06T00:14:29.927Z,655.0000
2023-03-06T00:15:32.205Z,656.0000
2023-03-06T00:16:34.544Z,660.0000
2023-03-06T00:17:36.748Z,653.0000
2023-03-06T00:18:39.053Z,652.0000
2023-03-06T00:19:41.242Z,650.0000
2023-03-06T00:20:43.507Z,650.0000
2023-03-06T00:21:45.758Z,649.0000
2023-03-06T00:22:45.858Z,655.0000
2023-03-06T00:23:48.185Z,649.0000
2023-03-06T00:24:50.345Z,651.0000
2023-03-06T00:25:52.604Z,650.0000
2023-03-06T00:26:54.844Z,652.0000
2023-03-06T00:27:57.079Z,652.0000
2023-03-06T00:28:59.440Z,647.0000
2023-03-06T00:30:01.560Z,653.0000
2023-03-06T00:31:01.685Z,649.0000
2023-03-06T00:32:03.957Z,650.0000
2023-03-06T00:33:06.174Z,650.0000
2023-03-06T00:34:08.582Z,646.0000
2023-03-06T00:35:10.776Z,650.0000
2023-03-06T00:36:13.063Z,650.0000
2023-03-06T00:37:15.366Z,647.0000
2023-03-06T00:38:15.516Z,646.0000
2023-03-06T00:39:17.928Z,645.0000
2023-03-06T00:40:20.086Z,643.0000
2023-03-06T00:41:22.346Z,647.0000
2023-03-06T00:42:24.662Z,636.0000
2023-03-06T00:43:26.972Z,637.0000
2023-03-06T00:44:29.274Z,640.0000
2023-03-06T00:45:29.342Z,640.0000
2023-03-06T00:46:31.628Z,641.0000
2023-03-06T00:47:33.905Z,640.0000
2023-03-06T00:48:36.166Z,637.0000
2023-03-06T00:49:38.566Z,638.0000
2023-03-06T00:50:40.647Z,635.0000
2023-03-06T00:51:42.913Z,636.0000
2023-03-06T00:52:45.175Z,635.0000
2023-03-06T00:53:45.272Z,639.0000
2023-03-06T00:54:47.567Z,636.0000
2023-03-06T00:55:49.727Z,636.0000
2023-03-06T00:56:51.968Z,636.0000
2023-03-06T00:57:54.251Z,637.0000
2023-03-06T00:58:56.514Z,640.0000
2023-03-06T00:59:58.816Z,636.0000
2023-03-06T01:01:01.062Z,633.0000
2023-03-06T01:02:03.441Z,642.0000
2023-03-06T01:03:03.395Z,634.0000
2023-03-06T01:04:05.665Z,641.0000
2023-03-06T01:05:08.005Z,636.0000
2023-03-06T01:06:10.216Z,636.0000
2023-03-06T01:07:12.484Z,631.0000
2023-03-06T01:08:14.689Z,632.0000
2023-03-06T01:09:16.933Z,627.0000
2023-03-06T01:10:17.158Z,626.0000
2023-03-06T01:11:17.300Z,625.0000
2023-03-06T01:12:21.370Z,628.0000
2023-03-06T01:13:21.959Z,626.0000
2023-03-06T01:14:24.294Z,627.0000
2023-03-06T01:15:26.658Z,620.0000
2023-03-06T01:16:26.877Z,617.0000
2023-03-06T01:17:29.140Z,626.0000
2023-03-06T01:18:31.463Z,629.0000
2023-03-06T01:19:33.788Z,629.0000
2023-03-06T01:20:36.277Z,629.0000
2023-03-06T01:21:38.466Z,631.0000
2023-03-06T01:22:40.799Z,628.0000
2023-03-06T01:23:43.121Z,634.0000
2023-03-06T01:24:45.425Z,636.0000
2023-03-06T01:25:47.744Z,629.0000
2023-03-06T01:26:47.889Z,632.0000
2023-03-06T01:27:50.180Z,632.0000
2023-03-06T01:28:52.497Z,622.0000
2023-03-06T01:29:54.807Z,620.0000
2023-03-06T01:30:57.201Z,621.0000
2023-03-06T01:31:59.580Z,620.0000
2023-03-06T01:32:59.569Z,621.0000
2023-03-06T01:34:01.729Z,618.0000
2023-03-06T01:35:03.944Z,618.0000
2023-03-06T01:36:06.306Z,621.0000
2023-03-06T01:37:08.448Z,618.0000
2023-03-06T01:38:10.705Z,617.0000
2023-03-06T01:39:12.936Z,617.0000
2023-03-06T01:40:15.129Z,617.0000
2023-03-06T01:41:17.411Z,614.0000
2023-03-06T01:42:19.579Z,615.0000
2023-03-06T01:43:21.853Z,613.0000
2023-03-06T01:44:24.110Z,614.0000
2023-03-06T01:45:33.090Z,623.0000
2023-03-06T01:46:35.247Z,610.0000
2023-03-06T01:47:37.301Z,604.0000
2023-03-06T01:48:39.459Z,605.0000
2023-03-06T01:49:41.660Z,602.0000
2023-03-06T01:50:43.809Z,604.0000
2023-03-06T01:51:46.127Z,599.0000
2023-03-06T01:52:48.157Z,599.0000
2023-03-06T01:53:50.354Z,599.0000
2023-03-06T01:54:52.553Z,601.0000
2023-03-06T01:55:54.719Z,601.0000
2023-03-06T01:56:56.932Z,604.0000
2023-03-06T01:57:59.127Z,605.0000
2023-03-06T01:59:01.313Z,599.0000
2023-03-06T02:00:03.534Z,599.0000
2023-03-06T02:01:05.886Z,604.0000
2023-03-06T02:02:08.097Z,597.0000
2023-03-06T02:03:10.203Z,598.0000
2023-03-06T02:04:12.408Z,608.0000
2023-03-06T02:05:14.616Z,603.0000
2023-03-06T02:06:14.734Z,606.0000
2023-03-06T02:07:17.074Z,606.0000
2023-03-06T02:08:19.205Z,599.0000
2023-03-06T02:09:21.464Z,592.0000
2023-03-06T02:10:23.708Z,601.0000
2023-03-06T02:11:25.963Z,599.0000
2023-03-06T02:12:28.260Z,598.0000
2023-03-06T02:13:30.374Z,610.0000
2023-03-06T02:14:32.599Z,600.0000
2023-03-06T02:15:34.793Z,602.0000
2023-03-06T02:16:37.103Z,596.0000
2023-03-06T02:17:39.205Z,604.0000
2023-03-06T02:18:39.226Z,605.0000
2023-03-06T02:19:41.390Z,605.0000
2023-03-06T02:20:43.605Z,606.0000
2023-03-06T02:21:45.731Z,603.0000
2023-03-06T02:22:48.046Z,601.0000
2023-03-06T02:23:50.074Z,601.0000
2023-03-06T02:24:52.233Z,603.0000
2023-03-06T02:25:54.427Z,604.0000
2023-03-06T02:26:56.568Z,598.0000
2023-03-06T02:27:58.869Z,598.0000
2023-03-06T02:29:00.981Z,597.0000
2023-03-06T02:30:03.197Z,596.0000
2023-03-06T02:31:05.503Z,591.0000
2023-03-06T02:32:07.669Z,590.0000
2023-03-06T02:33:09.884Z,592.0000
2023-03-06T02:34:12.047Z,596.0000
2023-03-06T02:35:14.279Z,599.0000
2023-03-06T02:36:16.441Z,596.0000
2023-03-06T02:37:18.691Z,595.0000
2023-03-06T02:38:18.879Z,593.0000
2023-03-06T02:39:20.973Z,593.0000
2023-03-06T02:40:23.211Z,587.0000
2023-03-06T02:41:25.434Z,584.0000
2023-03-06T02:42:27.651Z,583.0000
2023-03-06T02:43:29.946Z,593.0000
2023-03-06T02:44:32.142Z,578.0000
2023-03-06T02:45:34.417Z,586.0000
2023-03-06T02:46:36.697Z,586.0000
2023-03-06T02:47:38.975Z,588.0000
2023-03-06T02:48:39.121Z,593.0000
2023-03-06T02:49:41.389Z,586.0000
2023-03-06T02:50:43.650Z,591.0000
2023-03-06T02:51:45.873Z,593.0000
2023-03-06T02:52:48.133Z,592.0000
2023-03-06T02:53:50.556Z,594.0000
2023-03-06T02:54:52.675Z,602.0000
2023-03-06T02:55:52.874Z,589.0000
2023-03-06T02:56:55.164Z,590.0000
2023-03-06T02:57:57.486Z,592.0000
2023-03-06T02:58:59.807Z,584.0000
2023-03-06T03:00:02.092Z,582.0000
2023-03-06T03:01:04.394Z,579.0000
2023-03-06T03:02:04.570Z,576.0000
2023-03-06T03:03:06.860Z,577.0000
2023-03-06T03:04:09.342Z,580.0000
2023-03-06T03:05:11.472Z,579.0000
2023-03-06T03:06:13.764Z,582.0000
2023-03-06T03:07:16.074Z,587.0000
2023-03-06T03:08:18.378Z,584.0000
2023-03-06T03:09:18.569Z,589.0000
2023-03-06T03:10:20.842Z,585.0000
2023-03-06T03:11:23.155Z,586.0000
2023-03-06T03:12:25.418Z,584.0000
2023-03-06T03:13:27.751Z,599.0000
2023-03-06T03:14:30.127Z,592.0000
2023-03-06T03:15:32.478Z,581.0000
2023-03-06T03:16:32.411Z,587.0000
2023-03-06T03:17:34.737Z,585.0000
2023-03-06T03:18:37.037Z,590.0000
2023-03-06T03:19:39.412Z,586.0000
2023-03-06T03:20:41.603Z,591.0000
2023-03-06T03:21:43.899Z,589.0000
2023-03-06T03:22:46.304Z,588.0000
2023-03-06T03:23:48.455Z,585.0000
2023-03-06T03:24:50.806Z,580.0000
2023-03-06T03:25:53.120Z,579.0000
2023-03-06T03:26:55.386Z,581.0000
2023-03-06T03:27:57.753Z,583.0000
2023-03-06T03:28:57.955Z,581.0000
2023-03-06T03:30:00.401Z,586.0000
2023-03-06T03:31:02.668Z,584.0000
2023-03-06T03:32:05.050Z,585.0000
2023-03-06T03:33:07.271Z,586.0000
2023-03-06T03:34:09.589Z,585.0000
2023-03-06T03:35:09.901Z,591.0000
2023-03-06T03:36:12.123Z,589.0000
2023-03-06T03:37:14.443Z,588.0000
2023-03-06T03:38:16.784Z,585.0000
2023-03-06T03:39:19.110Z,584.0000
2023-03-06T03:40:19.404Z,574.0000
2023-03-06T03:41:21.568Z,580.0000
2023-03-06T03:42:23.908Z,584.0000
2023-03-06T03:43:26.239Z,582.0000
2023-03-06T03:44:28.531Z,584.0000
2023-03-06T03:45:30.856Z,584.0000
2023-03-06T03:47:11.901Z,586.0000
2023-03-06T03:48:14.094Z,586.0000
2023-03-06T03:49:16.309Z,583.0000
2023-03-06T03:50:16.450Z,583.0000
2023-03-06T03:51:18.771Z,580.0000
2023-03-06T03:52:21.079Z,583.0000
2023-03-06T03:53:23.305Z,584.0000
2023-03-06T03:54:25.589Z,581.0000
2023-03-06T03:55:27.880Z,579.0000
2023-03-06T03:56:30.215Z,576.0000
2023-03-06T03:57:30.251Z,577.0000
2023-03-06T03:58:32.557Z,581.0000
2023-03-06T03:59:34.864Z,587.0000
2023-03-06T04:00:37.192Z,575.0000
2023-03-06T04:01:39.950Z,574.0000
2023-03-06T04:02:41.807Z,577.0000
2023-03-06T04:03:44.084Z,582.0000
2023-03-06T04:04:44.253Z,581.0000
2023-03-06T04:05:46.516Z,584.0000
2023-03-06T04:06:48.836Z,585.0000
2023-03-06T04:07:51.090Z,587.0000
2023-03-06T04:08:53.403Z,588.0000
2023-03-06T04:09:55.688Z,587.0000
2023-03-06T04:10:57.996Z,589.0000
2023-03-06T04:11:58.195Z,578.0000
2023-03-06T04:13:00.396Z,579.0000
2023-03-06T04:14:02.688Z,585.0000
2023-03-06T04:15:04.926Z,585.0000
2023-03-06T04:16:07.209Z,591.0000
2023-03-06T04:17:09.619Z,600.0000
2023-03-06T04:18:11.838Z,603.0000
2023-03-06T04:19:12.012Z,602.0000
2023-03-06T04:20:14.306Z,602.0000
2023-03-06T04:21:16.598Z,612.0000
2023-03-06T04:22:18.892Z,605.0000
2023-03-06T04:23:21.184Z,608.0000
2023-03-06T04:24:23.480Z,610.0000
2023-03-06T04:25:23.638Z,612.0000
2023-03-06T04:26:25.955Z,616.0000
2023-03-06T04:27:28.201Z,617.0000
2023-03-06T04:28:30.428Z,622.0000
2023-03-06T04:29:32.708Z,629.0000
2023-03-06T04:30:34.970Z,625.0000
2023-03-06T04:31:37.315Z,626.0000
2023-03-06T04:32:39.640Z,629.0000
2023-03-06T04:33:39.628Z,631.0000
2023-03-06T04:34:41.876Z,646.0000
2023-03-06T04:35:44.159Z,647.0000
2023-03-06T04:36:46.395Z,650.0000
2023-03-06T04:37:48.725Z,651.0000
2023-03-06T04:38:50.923Z,648.0000
2023-03-06T04:39:53.143Z,651.0000
2023-03-06T04:40:55.404Z,652.0000
2023-03-06T04:41:57.714Z,653.0000
2023-03-06T04:42:57.900Z,655.0000
2023-03-06T04:44:00.070Z,667.0000
2023-03-06T04:45:02.354Z,663.0000
2023-03-06T04:46:04.710Z,659.0000
2023-03-06T04:47:06.925Z,659.0000
2023-03-06T04:48:09.217Z,656.0000
2023-03-06T04:49:11.511Z,659.0000
2023-03-06T04:50:11.682Z,659.0000
2023-03-06T04:51:14.001Z,654.0000
2023-03-06T04:52:16.303Z,664.0000
2023-03-06T04:53:18.642Z,661.0000
2023-03-06T04:54:20.964Z,663.0000
2023-03-06T04:55:21.159Z,667.0000
2023-03-06T04:56:23.432Z,670.0000
2023-03-06T04:57:25.711Z,670.0000
2023-03-06T04:58:28.134Z,674.0000
2023-03-06T04:59:30.312Z,671.0000
2023-03-06T05:00:32.594Z,675.0000
2023-03-06T05:01:34.860Z,672.0000
2023-03-06T05:02:35.035Z,676.0000
2023-03-06T05:03:37.474Z,672.0000
2023-03-06T05:04:39.664Z,678.0000
2023-03-06T05:05:41.928Z,686.0000
2023-03-06T05:06:44.201Z,684.0000
2023-03-06T05:07:46.442Z,682.0000
2023-03-06T05:08:48.864Z,676.0000
2023-03-06T05:10:29.782Z,678.0000
2023-03-06T05:11:31.954Z,676.0000
2023-03-06T05:12:34.194Z,680.0000
2023-03-06T05:13:36.433Z,685.0000
2023-03-06T05:14:36.689Z,681.0000
2023-03-06T05:15:38.828Z,692.0000
2023-03-06T05:16:41.132Z,697.0000
2023-03-06T05:17:43.346Z,695.0000
2023-03-06T05:18:45.606Z,697.0000
2023-03-06T05:19:47.898Z,703.0000
2023-03-06T05:20:50.153Z,707.0000
2023-03-06T05:21:50.282Z,708.0000
2023-03-06T05:22:52.506Z,715.0000
2023-03-06T05:23:54.737Z,725.0000
2023-03-06T05:24:57.061Z,724.0000
2023-03-06T05:25:59.207Z,728.0000
2023-03-06T05:27:01.411Z,739.0000
2023-03-06T05:28:03.685Z,740.0000
2023-03-06T05:29:05.906Z,746.0000
2023-03-06T05:30:08.255Z,749.0000
2023-03-06T05:31:10.399Z,760.0000
2023-03-06T05:32:12.809Z,763.0000
2023-03-06T05:33:12.718Z,764.0000
2023-03-06T05:34:14.988Z,763.0000
2023-03-06T05:35:17.340Z,769.0000
2023-03-06T05:36:19.509Z,770.0000
2023-03-06T05:37:21.761Z,769.0000
2023-03-06T05:38:24.024Z,770.0000
2023-03-06T05:39:26.282Z,779.0000
2023-03-06T05:40:28.583Z,777.0000
2023-03-06T05:41:30.815Z,779.0000
2023-03-06T05:42:30.954Z,781.0000
2023-03-06T05:43:33.226Z,784.0000
2023-03-06T05:44:35.504Z,783.0000
2023-03-06T05:45:37.791Z,785.0000
2023-03-06T05:46:40.021Z,785.0000
2023-03-06T05:47:42.282Z,792.0000
2023-03-06T05:48:46.776Z,791.0000
2023-03-06T05:49:46.789Z,793.0000
2023-03-06T05:50:47.008Z,797.0000
2023-03-06T05:51:49.158Z,792.0000
2023-03-06T05:52:51.427Z,794.0000
2023-03-06T05:53:53.673Z,805.0000
2023-03-06T05:54:55.917Z,800.0000
2023-03-06T05:55:58.197Z,792.0000
2023-03-06T05:57:00.441Z,807.0000
2023-03-06T05:58:02.678Z,814.0000
2023-03-06T05:59:04.947Z,813.0000
2023-03-06T06:00:04.998Z,806.0000
2023-03-06T06:01:07.274Z,805.0000
2023-03-06T06:02:09.528Z,807.0000
2023-03-06T06:03:11.744Z,799.0000
2023-03-06T06:04:13.993Z,751.0000
2023-03-06T06:05:16.296Z,639.0000
2023-03-06T06:06:18.678Z,624.0000
2023-03-06T06:07:20.878Z,601.0000
2023-03-06T06:08:21.026Z,577.0000
2023-03-06T06:09:23.334Z,571.0000
2023-03-06T06:10:25.648Z,568.0000
2023-03-06T06:11:28.002Z,564.0000
2023-03-06T06:12:30.273Z,652.0000
2023-03-06T06:13:32.581Z,658.0000
2023-03-06T06:14:34.891Z,670.0000
2023-03-06T06:15:35.073Z,671.0000
2023-03-06T06:16:37.422Z,672.0000
2023-03-06T06:17:39.656Z,671.0000
2023-03-06T06:18:41.934Z,673.0000
2023-03-06T06:19:44.190Z,681.0000
2023-03-06T06:20:46.474Z,685.0000
2023-03-06T06:21:46.746Z,685.0000
2023-03-06T06:22:48.976Z,686.0000
2023-03-06T06:23:51.328Z,681.0000
2023-03-06T06:24:53.672Z,682.0000
2023-03-06T06:25:56.029Z,692.0000
2023-03-06T06:26:56.245Z,690.0000
2023-03-06T06:27:58.576Z,686.0000
2023-03-06T06:29:00.900Z,688.0000
2023-03-06T06:30:03.301Z,690.0000
2023-03-06T06:31:05.634Z,697.0000
2023-03-06T06:32:05.767Z,692.0000
2023-03-06T06:33:08.021Z,697.0000
2023-03-06T06:34:10.348Z,700.0000
2023-03-06T06:35:12.649Z,696.0000
2023-03-06T06:36:57.899Z,692.0000
2023-03-06T06:38:00.025Z,683.0000
2023-03-06T06:39:02.187Z,686.0000
2023-03-06T06:40:04.402Z,690.0000
2023-03-06T06:41:33.461Z,693.0000
2023-03-06T06:42:28.609Z,693.0000
2023-03-06T06:43:09.022Z,696.0000
2023-03-06T06:44:11.128Z,696.0000
2023-03-06T06:45:13.394Z,696.0000
2023-03-06T06:46:49.939Z,695.0000
2023-03-06T06:47:22.889Z,700.0000
2023-03-06T06:48:20.208Z,696.0000
2023-03-06T06:49:22.285Z,687.0000
2023-03-06T06:50:24.496Z,695.0000
2023-03-06T06:51:26.741Z,699.0000
2023-03-06T06:52:29.024Z,689.0000
2023-03-06T06:53:29.165Z,694.0000
2023-03-06T06:54:31.477Z,693.0000
2023-03-06T06:55:33.802Z,696.0000
2023-03-06T06:56:36.109Z,697.0000
2023-03-06T06:57:38.416Z,696.0000
2023-03-06T06:58:40.865Z,697.0000
2023-03-06T06:59:40.916Z,697.0000
2023-03-06T07:00:43.230Z,697.0000
2023-03-06T07:01:43.546Z,700.0000
2023-03-06T07:02:45.713Z,703.0000
2023-03-06T07:03:48.188Z,704.0000
2023-03-06T07:05:03.081Z,708.0000
2023-03-06T07:05:50.509Z,715.0000
2023-03-06T07:06:52.797Z,712.0000
2023-03-06T07:07:55.100Z,720.0000
2023-03-06T07:08:57.571Z,729.0000
2023-03-06T07:09:59.691Z,727.0000
2023-03-06T07:11:02.005Z,730.0000
2023-03-06T07:12:02.112Z,723.0000
2023-03-06T07:13:04.323Z,716.0000
2023-03-06T07:14:06.653Z,719.0000
2023-03-06T07:15:08.840Z,725.0000
2023-03-06T07:16:11.207Z,727.0000
2023-03-06T07:17:13.417Z,727.0000
2023-03-06T07:18:15.733Z,727.0000
2023-03-06T07:19:18.142Z,728.0000
2023-03-06T07:20:18.113Z,735.0000
2023-03-06T07:21:20.422Z,738.0000
2023-03-06T07:22:22.651Z,741.0000
2023-03-06T07:23:24.895Z,741.0000
2023-03-06T07:24:27.200Z,741.0000
2023-03-06T07:25:29.483Z,744.0000
2023-03-06T07:26:34.505Z,746.0000
2023-03-06T07:27:32.038Z,745.0000
2023-03-06T07:28:46.292Z,749.0000
2023-03-06T07:29:36.732Z,750.0000
2023-03-06T07:30:38.955Z,751.0000
2023-03-06T07:31:41.254Z,751.0000
2023-03-06T07:32:43.597Z,757.0000
2023-03-06T07:33:43.680Z,756.0000
2023-03-06T07:34:46.065Z,762.0000
2023-03-06T07:35:48.357Z,761.0000
2023-03-06T07:36:50.721Z,758.0000
2023-03-06T07:37:53.038Z,762.0000
2023-03-06T07:38:53.241Z,766.0000
2023-03-06T07:39:55.699Z,763.0000
2023-03-06T07:40:57.953Z,764.0000
2023-03-06T07:42:00.435Z,773.0000
2023-03-06T07:43:17.150Z,776.0000
2023-03-06T07:44:02.894Z,782.0000
2023-03-06T07:45:05.376Z,784.0000
2023-03-06T07:46:07.728Z,786.0000
2023-03-06T07:47:07.868Z,786.0000
2023-03-06T07:48:10.216Z,784.0000
2023-03-06T07:49:12.576Z,777.0000
2023-03-06T07:50:15.054Z,784.0000
2023-03-06T07:51:15.162Z,787.0000
2023-03-06T07:52:17.510Z,788.0000
2023-03-06T07:53:19.835Z,794.0000
2023-03-06T07:54:22.204Z,784.0000
2023-03-06T07:55:22.408Z,786.0000
2023-03-06T07:56:24.744Z,787.0000
2023-03-06T07:57:27.015Z,789.0000
2023-03-06T07:58:28.176Z,794.0000
2023-03-06T07:59:29.439Z,793.0000
2023-03-06T08:00:31.797Z,798.0000
2023-03-06T08:01:33.928Z,796.0000
2023-03-06T08:02:36.255Z,794.0000
2023-03-06T08:03:38.505Z,802.0000
2023-03-06T08:04:40.758Z,805.0000
2023-03-06T08:05:40.996Z,810.0000
2023-03-06T08:06:43.152Z,807.0000
2023-03-06T08:07:45.444Z,805.0000
2023-03-06T08:08:47.760Z,805.0000
2023-03-06T08:09:50.039Z,807.0000
2023-03-06T08:10:52.462Z,806.0000
2023-03-06T08:11:54.578Z,801.0000
2023-03-06T08:12:54.704Z,809.0000
2023-03-06T08:13:56.939Z,798.0000
2023-03-06T08:14:59.210Z,813.0000
2023-03-06T08:16:01.664Z,803.0000
2023-03-06T08:17:03.805Z,809.0000
2023-03-06T08:18:06.137Z,810.0000
2023-03-06T08:19:08.375Z,808.0000
2023-03-06T08:20:10.620Z,806.0000
2023-03-06T08:21:10.856Z,793.0000
2023-03-06T08:22:12.985Z,787.0000
2023-03-06T08:23:15.270Z,791.0000
2023-03-06T08:24:17.551Z,795.0000
2023-03-06T08:25:19.810Z,796.0000
2023-03-06T08:26:22.124Z,800.0000
2023-03-06T08:27:24.397Z,799.0000
2023-03-06T08:28:26.605Z,803.0000
2023-03-06T08:29:29.837Z,797.0000
2023-03-06T08:30:29.007Z,798.0000
2023-03-06T08:31:31.442Z,806.0000
2023-03-06T08:32:33.671Z,802.0000
2023-03-06T08:33:35.859Z,798.0000
2023-03-06T08:34:38.123Z,799.0000
2023-03-06T08:35:40.490Z,801.0000
2023-03-06T08:36:40.561Z,800.0000
2023-03-06T08:37:42.893Z,798.0000
2023-03-06T08:38:45.103Z,796.0000
2023-03-06T08:39:47.359Z,793.0000
2023-03-06T08:40:49.566Z,792.0000
2023-03-06T08:41:51.902Z,784.0000
2023-03-06T08:42:54.056Z,790.0000
2023-03-06T08:43:38.252Z,749.0000
2023-03-06T08:44:39.347Z,770.0000
2023-03-06T08:45:41.568Z,767.0000
2023-03-06T08:46:43.820Z,763.0000
2023-03-06T08:47:46.196Z,766.0000
2023-03-06T08:48:48.408Z,761.0000
2023-03-06T08:49:50.630Z,760.0000
2023-03-06T08:50:52.948Z,758.0000
2023-03-06T08:51:53.131Z,761.0000
2023-03-06T08:52:55.559Z,764.0000
2023-03-06T08:53:57.819Z,757.0000
2023-03-06T08:55:00.138Z,755.0000
2023-03-06T08:56:02.485Z,760.0000
2023-03-06T08:57:02.661Z,758.0000
2023-03-06T08:58:05.093Z,758.0000
2023-03-06T08:59:07.326Z,738.0000
2023-03-06T09:00:09.667Z,744.0000
2023-03-06T09:01:12.036Z,746.0000
2023-03-06T09:02:12.206Z,743.0000
2023-03-06T09:03:14.580Z,748.0000
2023-03-06T09:04:16.925Z,737.0000
2023-03-06T09:05:19.086Z,741.0000
2023-03-06T09:06:21.391Z,737.0000
2023-03-06T09:07:23.665Z,735.0000
2023-03-06T09:08:25.975Z,736.0000
2023-03-06T09:09:28.101Z,738.0000
2023-03-06T09:10:28.265Z,738.0000
2023-03-06T09:11:30.478Z,737.0000
2023-03-06T09:12:47.389Z,739.0000
2023-03-06T09:13:35.097Z,734.0000
2023-03-06T09:14:37.264Z,734.0000
2023-03-06T09:15:39.510Z,728.0000
2023-03-06T09:16:41.922Z,731.0000
2023-03-06T09:17:44.143Z,723.0000
2023-03-06T09:18:44.243Z,722.0000
2023-03-06T09:19:46.402Z,722.0000
2023-03-06T09:20:48.683Z,719.0000
2023-03-06T09:21:50.961Z,725.0000
2023-03-06T09:22:53.250Z,729.0000
2023-03-06T09:23:55.615Z,726.0000
2023-03-06T09:24:57.764Z,723.0000
2023-03-06T09:26:00.047Z,723.0000
2023-03-06T09:27:00.234Z,719.0000
2023-03-06T09:28:11.429Z,721.0000
2023-03-06T09:29:04.820Z,721.0000
2023-03-06T09:30:07.081Z,722.0000
2023-03-06T09:31:09.401Z,715.0000
2023-03-06T09:32:12.237Z,716.0000
2023-03-06T09:33:13.924Z,715.0000
2023-03-06T09:34:14.188Z,714.0000
2023-03-06T09:35:16.360Z,710.0000
2023-03-06T09:36:18.584Z,710.0000
2023-03-06T09:37:20.845Z,713.0000
2023-03-06T09:38:23.122Z,713.0000
2023-03-06T09:39:25.552Z,720.0000
2023-03-06T09:40:27.722Z,719.0000
2023-03-06T09:41:29.968Z,707.0000
2023-03-06T09:42:30.097Z,708.0000
2023-03-06T09:43:32.358Z,709.0000
2023-03-06T09:44:34.714Z,707.0000
2023-03-06T09:45:36.857Z,705.0000
2023-03-06T09:46:39.141Z,704.0000
2023-03-06T09:47:41.398Z,703.0000
2023-03-06T09:48:43.675Z,708.0000
2023-03-06T09:49:46.060Z,706.0000
2023-03-06T09:50:46.137Z,708.0000
2023-03-06T09:51:48.428Z,707.0000
2023-03-06T09:52:50.662Z,711.0000
2023-03-06T09:53:52.951Z,714.0000
2023-03-06T09:54:55.348Z,714.0000
2023-03-06T09:55:57.498Z,711.0000
2023-03-06T09:56:59.781Z,706.0000
2023-03-06T09:57:59.936Z,707.0000
2023-03-06T09:59:02.187Z,704.0000
2023-03-06T10:00:04.768Z,705.0000
2023-03-06T10:01:06.764Z,706.0000
2023-03-06T10:02:09.257Z,707.0000
2023-03-06T10:03:11.544Z,696.0000
2023-03-06T10:04:13.628Z,700.0000
2023-03-06T10:05:13.883Z,701.0000
2023-03-06T10:07:35.631Z,695.0000
2023-03-06T10:08:37.802Z,696.0000
2023-03-06T10:09:40.053Z,696.0000
2023-03-06T10:10:42.418Z,696.0000
2023-03-06T10:11:44.712Z,698.0000
2023-03-06T10:12:44.730Z,696.0000
2023-03-06T10:13:47.022Z,691.0000
2023-03-06T10:14:49.484Z,692.0000
2023-03-06T10:15:51.721Z,689.0000
2023-03-06T10:16:53.801Z,687.0000
2023-03-06T10:17:56.081Z,689.0000
2023-03-06T10:18:58.340Z,692.0000
2023-03-06T10:20:00.634Z,682.0000
2023-03-06T10:21:13.410Z,688.0000
2023-03-06T10:22:03.050Z,689.0000
2023-03-06T10:23:05.557Z,682.0000
2023-03-06T10:24:07.539Z,690.0000
2023-03-06T10:25:09.749Z,687.0000
2023-03-06T10:26:12.183Z,684.0000
2023-03-06T10:27:14.351Z,689.0000
2023-03-06T10:28:16.572Z,684.0000
2023-03-06T10:29:18.767Z,675.0000
2023-03-06T10:30:18.895Z,674.0000
2023-03-06T10:31:21.229Z,677.0000
2023-03-06T10:32:23.462Z,678.0000
2023-03-06T10:33:25.692Z,677.0000
2023-03-06T10:34:26.839Z,676.0000
2023-03-06T10:35:30.654Z,678.0000
2023-03-06T10:36:30.383Z,679.0000
2023-03-06T10:37:32.725Z,675.0000
2023-03-06T10:38:34.941Z,674.0000
2023-03-06T10:39:37.152Z,669.0000
2023-03-06T10:40:38.285Z,669.0000
2023-03-06T10:41:40.545Z,664.0000
2023-03-06T10:42:42.759Z,662.0000
2023-03-06T10:43:44.997Z,663.0000
2023-03-06T10:44:47.281Z,669.0000
2023-03-06T10:45:49.891Z,667.0000
2023-03-06T10:46:51.876Z,666.0000
2023-03-06T10:47:51.975Z,666.0000
2023-03-06T10:48:54.265Z,667.0000
2023-03-06T10:49:56.552Z,667.0000
2023-03-06T10:51:01.101Z,661.0000
2023-03-06T10:51:59.000Z,661.0000
2023-03-06T10:53:01.188Z,661.0000
2023-03-06T10:54:03.502Z,662.0000
2023-03-06T10:55:05.790Z,665.0000
2023-03-06T10:56:05.882Z,666.0000
2023-03-06T10:57:08.144Z,660.0000
2023-03-06T10:58:10.343Z,653.0000
2023-03-06T10:59:12.579Z,650.0000
2023-03-06T11:00:14.804Z,630.0000
2023-03-06T11:01:17.128Z,604.0000
2023-03-06T11:02:19.348Z,561.0000
2023-03-06T11:03:21.549Z,556.0000
2023-03-06T11:04:23.834Z,584.0000
2023-03-06T11:05:26.044Z,595.0000
2023-03-06T11:06:28.300Z,610.0000
2023-03-06T11:07:30.658Z,619.0000
2023-03-06T11:08:30.648Z,624.0000
2023-03-06T11:09:32.973Z,621.0000
2023-03-06T11:10:35.156Z,625.0000
2023-03-06T11:11:38.198Z,623.0000
2023-03-06T11:12:37.604Z,629.0000
2023-03-06T11:13:39.877Z,626.0000
2023-03-06T11:14:42.185Z,629.0000
2023-03-06T11:15:44.538Z,625.0000
2023-03-06T11:16:44.655Z,618.0000
2023-03-06T11:17:46.977Z,620.0000
2023-03-06T11:18:49.231Z,624.0000
2023-03-06T11:19:51.545Z,622.0000
2023-03-06T11:20:53.807Z,620.0000
2023-03-06T11:23:17.839Z,604.0000
2023-03-06T11:24:19.978Z,607.0000
2023-03-06T11:25:22.222Z,607.0000
2023-03-06T11:26:24.443Z,605.0000
2023-03-06T11:27:24.548Z,604.0000
2023-03-06T11:28:26.925Z,608.0000
2023-03-06T11:29:29.631Z,608.0000
2023-03-06T11:30:31.314Z,610.0000
2023-03-06T11:31:33.630Z,607.0000
2023-03-06T11:32:35.794Z,608.0000
2023-03-06T11:33:38.106Z,605.0000
2023-03-06T11:34:40.198Z,607.0000
2023-03-06T11:35:42.485Z,604.0000
2023-03-06T11:36:44.677Z,602.0000
2023-03-06T11:37:46.912Z,598.0000
2023-03-06T11:38:47.039Z,598.0000
2023-03-06T11:39:49.245Z,582.0000
2023-03-06T11:40:51.676Z,585.0000
2023-03-06T11:41:53.729Z,588.0000
2023-03-06T11:42:55.982Z,590.0000
2023-03-06T11:43:58.366Z,595.0000
2023-03-06T11:45:02.905Z,595.0000
2023-03-06T11:46:02.845Z,602.0000
2023-03-06T11:47:03.029Z,591.0000
2023-03-06T11:48:05.252Z,592.0000
2023-03-06T11:49:07.658Z,591.0000
2023-03-06T11:50:09.846Z,591.0000
2023-03-06T11:51:12.152Z,596.0000
2023-03-06T11:52:14.459Z,593.0000
2023-03-06T11:53:16.768Z,594.0000
2023-03-06T11:54:19.041Z,592.0000
2023-03-06T11:55:19.120Z,592.0000
2023-03-06T11:56:19.299Z,595.0000
2023-03-06T11:57:21.612Z,593.0000
2023-03-06T11:58:23.909Z,597.0000
2023-03-06T11:59:26.215Z,591.0000
2023-03-06T12:00:28.499Z,589.0000
2023-03-06T12:01:28.670Z,588.0000
2023-03-06T12:02:30.930Z,584.0000
2023-03-06T12:03:33.214Z,584.0000
2023-03-06T12:04:35.485Z,591.0000
2023-03-06T12:05:37.709Z,595.0000
2023-03-06T12:06:39.922Z,595.0000
2023-03-06T12:07:42.164Z,594.0000
2023-03-06T12:08:44.408Z,593.0000
2023-03-06T12:09:46.731Z,594.0000
2023-03-06T12:10:51.456Z,588.0000
2023-03-06T12:11:48.923Z,589.0000